DPALM LIRJ-LIRJ
Flight info
| Callsign | DPALM |
|---|---|
| Flight time | 0h 21m |
| Altitude | 6000 |
| Route | 4244N01016E DCT 4244N01017E DCT ELB DCT 4244N01052E 4244N01058E DCT GRO DCT 4243N01114E 4237N01112E 4234N01046E 4239N01012E DCT 4251N01006E DCT 4253N01012E |
| Aircraft | PA24/L-SDGRY/S |
Departure
| Time | 2026-05-07 14:36 |
|---|---|
| Airport | Marina di Campo Airport (LIRJ) |
Arrival
| Time | 2026-05-07 14:57 |
|---|---|
| Airport | Marina di Campo Airport (LIRJ) |
| Time | Latitude | Longitude | Altitude | Speed | Heading |
|---|---|---|---|---|---|
| 2026-05-07 14:24 | 42.76289 | 10.23770 | 13 ft | 0 kts | 252° |
| 2026-05-07 14:26 | 42.76302 | 10.23777 | 13 ft | 7 kts | 54° |
| 2026-05-07 14:26 | 42.76303 | 10.23812 | 13 ft | 4 kts | 141° |
| 2026-05-07 14:27 | 42.76268 | 10.23824 | 13 ft | 8 kts | 160° |
| 2026-05-07 14:27 | 42.76251 | 10.23890 | 15 ft | 9 kts | 80° |
| 2026-05-07 14:27 | 42.76206 | 10.23932 | 16 ft | 11 kts | 167° |
| 2026-05-07 14:27 | 42.76117 | 10.23973 | 15 ft | 16 kts | 161° |
| 2026-05-07 14:28 | 42.75992 | 10.24029 | 16 ft | 21 kts | 161° |
| 2026-05-07 14:28 | 42.75841 | 10.24079 | 14 ft | 14 kts | 175° |
| 2026-05-07 14:28 | 42.75847 | 10.24093 | 13 ft | 0 kts | 341° |
| 2026-05-07 14:35 | 42.76047 | 10.24006 | 15 ft | 62 kts | 342° |
| 2026-05-07 14:36 | 42.76563 | 10.23759 | 209 ft | 85 kts | 340° |
| 2026-05-07 14:36 | 42.77124 | 10.23507 | 558 ft | 84 kts | 342° |
| 2026-05-07 14:36 | 42.77633 | 10.23263 | 981 ft | 75 kts | 336° |
| 2026-05-07 14:36 | 42.78128 | 10.22912 | 1271 ft | 82 kts | 328° |
| 2026-05-07 14:37 | 42.78577 | 10.22474 | 1632 ft | 80 kts | 319° |
| 2026-05-07 14:37 | 42.79241 | 10.21351 | 2318 ft | 71 kts | 292° |
| 2026-05-07 14:37 | 42.79418 | 10.20692 | 2589 ft | 71 kts | 290° |
| 2026-05-07 14:43 | 42.79515 | 10.20331 | 2656 ft | 85 kts | 291° |
| 2026-05-07 14:43 | 42.79636 | 10.20018 | 2674 ft | 101 kts | 301° |
| 2026-05-07 14:47 | 42.80114 | 10.19183 | 2891 ft | 109 kts | 314° |
| 2026-05-07 14:47 | 42.80632 | 10.18380 | 3110 ft | 121 kts | 294° |
| 2026-05-07 14:48 | 42.80825 | 10.17066 | 2739 ft | 158 kts | 277° |
| 2026-05-07 14:48 | 42.80603 | 10.15736 | 3148 ft | 128 kts | 237° |
| 2026-05-07 14:48 | 42.79919 | 10.14955 | 3319 ft | 131 kts | 202° |
| 2026-05-07 14:48 | 42.79107 | 10.14712 | 3770 ft | 104 kts | 172° |
| 2026-05-07 14:49 | 42.78428 | 10.15021 | 3990 ft | 109 kts | 155° |
| 2026-05-07 14:49 | 42.77778 | 10.15425 | 4376 ft | 96 kts | 153° |
| 2026-05-07 14:49 | 42.77203 | 10.15850 | 4685 ft | 97 kts | 147° |
| 2026-05-07 14:49 | 42.76692 | 10.16257 | 5036 ft | 86 kts | 145° |
| 2026-05-07 14:50 | 42.76170 | 10.16776 | 5311 ft | 86 kts | 142° |
| 2026-05-07 14:50 | 42.75550 | 10.17391 | 5155 ft | 130 kts | 147° |
| 2026-05-07 14:50 | 42.74684 | 10.17988 | 5050 ft | 147 kts | 155° |
| 2026-05-07 14:50 | 42.73768 | 10.18484 | 5321 ft | 131 kts | 160° |
| 2026-05-07 14:51 | 42.72939 | 10.18966 | 5523 ft | 129 kts | 150° |
| 2026-05-07 14:51 | 42.72168 | 10.19639 | 5466 ft | 130 kts | 143° |
| 2026-05-07 14:51 | 42.71609 | 10.20494 | 5612 ft | 110 kts | 116° |
| 2026-05-07 14:51 | 42.71259 | 10.21608 | 4810 ft | 151 kts | 112° |
| 2026-05-07 14:52 | 42.71124 | 10.23008 | 3958 ft | 150 kts | 82° |
| 2026-05-07 14:52 | 42.71477 | 10.24281 | 3070 ft | 147 kts | 48° |
| 2026-05-07 14:52 | 42.72415 | 10.24971 | 2056 ft | 154 kts | 16° |
| 2026-05-07 14:52 | 42.73448 | 10.24920 | 1260 ft | 147 kts | 357° |
| 2026-05-07 14:53 | 42.74451 | 10.24756 | 547 ft | 142 kts | 342° |
| 2026-05-07 14:53 | 42.75336 | 10.24325 | 114 ft | 127 kts | 341° |
| 2026-05-07 14:53 | 42.76089 | 10.23995 | 18 ft | 99 kts | 340° |
| 2026-05-07 14:53 | 42.76648 | 10.23744 | 148 ft | 78 kts | 341° |
| 2026-05-07 14:54 | 42.77151 | 10.23575 | 504 ft | 72 kts | 352° |
| 2026-05-07 14:54 | 42.77645 | 10.23580 | 745 ft | 74 kts | 0° |
| 2026-05-07 14:54 | 42.78077 | 10.23266 | 919 ft | 94 kts | 273° |
| 2026-05-07 14:54 | 42.77685 | 10.22465 | 1019 ft | 118 kts | 217° |
| 2026-05-07 14:55 | 42.76835 | 10.22033 | 1032 ft | 138 kts | 185° |
| 2026-05-07 14:55 | 42.75930 | 10.22126 | 1360 ft | 123 kts | 165° |
| 2026-05-07 14:55 | 42.75122 | 10.22423 | 1274 ft | 122 kts | 163° |
| 2026-05-07 14:55 | 42.74309 | 10.22699 | 1093 ft | 119 kts | 166° |
| 2026-05-07 14:56 | 42.73522 | 10.22993 | 934 ft | 112 kts | 146° |
| 2026-05-07 14:56 | 42.73307 | 10.23898 | 951 ft | 99 kts | 76° |
| 2026-05-07 14:56 | 42.73825 | 10.24360 | 780 ft | 103 kts | 4° |
| 2026-05-07 14:56 | 42.74579 | 10.24488 | 318 ft | 104 kts | 5° |
| 2026-05-07 14:57 | 42.75233 | 10.24368 | 105 ft | 87 kts | 345° |
| 2026-05-07 14:57 | 42.75748 | 10.24137 | 18 ft | 69 kts | 343° |
| 2026-05-07 14:57 | 42.76026 | 10.24010 | 16 ft | 0 kts | 337° |